createdAt,value
2023-04-01T04:48:44.344Z,98786.59
2023-04-01T04:49:56.548Z,98784.03
2023-04-01T04:51:02.966Z,98784.06
2023-04-01T04:54:06.399Z,98793.78
2023-04-01T04:55:29.440Z,98787.63
2023-04-01T04:57:10.418Z,98790.78
2023-04-01T04:58:32.478Z,98794.75
2023-04-01T05:01:43.004Z,98805.66
2023-04-01T05:02:50.332Z,98795.63
2023-04-01T05:04:01.557Z,98797.03
2023-04-01T05:05:19.631Z,98798.13
2023-04-01T05:06:39.296Z,98803.63
2023-04-01T05:07:46.875Z,98806.72
2023-04-01T05:08:50.443Z,98811.47
2023-04-01T05:31:52.391Z,98803.53
2023-04-01T05:33:19.320Z,98794.97
2023-04-01T05:34:32.695Z,98799.69
2023-04-01T05:35:42.679Z,98806.25
2023-04-01T05:37:43.984Z,98803.63
2023-04-01T05:38:59.238Z,98808.41
2023-04-01T05:40:15.660Z,98805.34
2023-04-01T05:41:53.561Z,98817.03
2023-04-01T06:12:26.134Z,98830.19
2023-04-01T06:13:56.804Z,98830.56
2023-04-01T06:20:09.090Z,98833.19
2023-04-01T06:21:28.169Z,98833.34
2023-04-01T06:23:16.484Z,98835.44
2023-04-01T06:24:23.914Z,98835.13
2023-04-01T06:26:15.535Z,98834.88
2023-04-01T06:27:27.270Z,98825.88
2023-04-01T06:29:04.941Z,98836.38
2023-04-01T06:30:42.509Z,98836.50
2023-04-01T06:32:08.638Z,98841.75
2023-04-01T06:33:39.778Z,98833.13
2023-04-01T06:34:56.823Z,98841.00
2023-04-01T06:36:13.126Z,98843.34
2023-04-01T06:37:34.583Z,98839.03
2023-04-01T06:38:48.443Z,98844.19
2023-04-01T06:40:27.694Z,98837.06
2023-04-01T06:41:45.485Z,98834.72
2023-04-01T06:43:24.507Z,98842.94
2023-04-01T06:44:52.206Z,98847.25
2023-04-01T06:46:32.383Z,98852.72
2023-04-01T06:48:05.059Z,98843.31
2023-04-01T06:50:06.811Z,98842.47
2023-04-01T06:52:03.922Z,98851.09
2023-04-01T06:53:46.699Z,98853.13
2023-04-01T06:55:22.962Z,98854.31
2023-04-01T06:56:57.712Z,98858.97
2023-04-01T06:58:09.711Z,98863.66
2023-04-01T06:59:47.927Z,98860.13
2023-04-01T07:01:02.483Z,98854.59
2023-04-01T07:02:18.629Z,98862.97
2023-04-01T07:03:35.137Z,98857.44
2023-04-01T07:06:23.145Z,98860.56
2023-04-01T07:07:45.439Z,98866.91
2023-04-01T07:09:04.187Z,98866.16
2023-04-01T07:11:08.676Z,98865.09
2023-04-01T07:12:35.243Z,98873.84
2023-04-01T07:14:16.196Z,98871.88
2023-04-01T07:15:35.386Z,98870.78
2023-04-01T07:17:17.033Z,98865.28
2023-04-01T07:18:39.488Z,98866.53
2023-04-01T07:20:04.482Z,98865.31
2023-04-01T07:21:16.927Z,98862.94
2023-04-01T07:22:54.012Z,98869.94
2023-04-01T07:24:44.428Z,98866.47
2023-04-01T07:25:55.618Z,98868.41
2023-04-01T07:27:22.448Z,98872.75
2023-04-01T07:28:37.811Z,98866.13
2023-04-01T07:30:14.220Z,98862.22
2023-04-01T07:31:40.073Z,98873.19
2023-04-01T07:33:09.749Z,98861.00
2023-04-01T07:34:28.427Z,98875.59
2023-04-01T07:36:04.638Z,98860.69
2023-04-01T07:37:14.036Z,98869.38
2023-04-01T07:38:45.336Z,98873.31
2023-04-01T07:40:15.358Z,98865.44
2023-04-01T07:41:26.911Z,98870.16
2023-04-01T07:43:05.241Z,98873.75
2023-04-01T07:44:21.629Z,98874.13
2023-04-01T07:45:39.762Z,98867.00
2023-04-01T07:47:02.256Z,98863.06
2023-04-01T07:48:42.270Z,98874.09
2023-04-01T07:50:47.835Z,98881.78
2023-04-01T07:52:43.238Z,98890.75
2023-04-01T07:54:27.612Z,98892.72
2023-04-01T07:56:45.254Z,98886.06
2023-04-01T08:00:12.644Z,98895.38
2023-04-01T08:01:55.152Z,98891.66
2023-04-01T08:03:14.615Z,98892.72
2023-04-01T08:04:46.649Z,98890.56
2023-04-01T08:06:27.438Z,98890.53
2023-04-01T08:07:35.817Z,98895.91
2023-04-01T08:09:23.224Z,98891.41
2023-04-01T08:11:09.718Z,98887.09
2023-04-01T08:13:15.653Z,98891.13
2023-04-01T08:15:17.395Z,98890.47
2023-04-01T08:17:09.786Z,98886.94
2023-04-01T08:18:48.408Z,98890.66
2023-04-01T08:20:13.793Z,98891.44
2023-04-01T08:21:36.346Z,98892.38
2023-04-01T08:22:48.625Z,98895.88
2023-04-01T08:24:15.395Z,98895.34
2023-04-01T08:25:28.599Z,98895.34
2023-04-01T08:26:47.302Z,98898.06
2023-04-01T08:28:30.190Z,98891.91
2023-04-01T08:29:47.858Z,98903.56
2023-04-01T08:31:18.043Z,98900.63
2023-04-01T08:32:45.746Z,98899.19
2023-04-01T08:34:06.610Z,98905.06
2023-04-01T08:35:16.998Z,98905.69
2023-04-01T08:36:33.205Z,98905.13
2023-04-01T08:37:53.508Z,98904.66
2023-04-01T08:39:13.980Z,98903.59
2023-04-01T08:40:54.440Z,98903.16
2023-04-01T08:42:27.871Z,98898.75
2023-04-01T08:44:20.109Z,98900.78
2023-04-01T08:46:25.010Z,98906.66
2023-04-01T08:47:50.338Z,98912.09
2023-04-01T08:49:54.869Z,98914.22
2023-04-01T08:53:58.784Z,98918.38
2023-04-01T08:55:54.245Z,98917.50
2023-04-01T08:57:12.861Z,98923.25
2023-04-01T09:02:25.870Z,98926.03
2023-04-01T09:03:50.293Z,98921.44
2023-04-01T09:05:36.012Z,98925.38
2023-04-01T09:07:12.883Z,98924.59
2023-04-01T09:08:51.131Z,98925.16
2023-04-01T09:10:06.518Z,98918.38
2023-04-01T09:11:17.063Z,98927.00
2023-04-01T09:13:31.389Z,98928.38
2023-04-01T09:18:32.070Z,98926.09
2023-04-01T09:20:19.582Z,98928.09
2023-04-01T09:21:49.704Z,98940.63
2023-04-01T09:23:07.826Z,98924.31
2023-04-01T09:24:45.688Z,98924.00
2023-04-01T09:26:21.943Z,98938.28
2023-04-01T09:27:48.968Z,98931.69
2023-04-01T09:29:34.424Z,98927.44
2023-04-01T09:31:05.759Z,98928.81
2023-04-01T09:32:42.253Z,98930.03
2023-04-01T09:34:18.952Z,98926.25
2023-04-01T09:35:49.349Z,98931.13
2023-04-01T09:37:23.037Z,98943.31
2023-04-01T09:38:57.626Z,98940.69
2023-04-01T09:40:26.015Z,98938.81
2023-04-01T09:41:55.004Z,98941.72
2023-04-01T09:43:19.705Z,98929.47
2023-04-01T09:44:33.270Z,98931.22
2023-04-01T09:46:06.227Z,98942.53
2023-04-01T09:48:10.433Z,98946.28
2023-04-01T09:49:52.827Z,98937.94
2023-04-01T09:51:25.210Z,98944.88
2023-04-01T09:52:59.421Z,98950.47
2023-04-01T09:54:22.647Z,98955.13
2023-04-01T09:55:52.931Z,98952.91
2023-04-01T09:57:49.801Z,98956.72
2023-04-01T09:59:53.657Z,98953.16
2023-04-01T10:01:57.441Z,98961.31
2023-04-01T10:03:43.690Z,98959.91
2023-04-01T10:05:18.446Z,98965.97
2023-04-01T10:07:20.363Z,98967.38
2023-04-01T10:09:09.699Z,98964.97
2023-04-01T10:10:34.641Z,98970.69
2023-04-01T10:12:26.892Z,98962.75
2023-04-01T10:14:22.984Z,98967.34
2023-04-01T10:15:42.892Z,98966.81
2023-04-01T10:17:15.289Z,98967.38
2023-04-01T10:18:27.778Z,98964.69
2023-04-01T10:20:02.946Z,98973.22
2023-04-01T10:21:22.725Z,98965.25
2023-04-01T10:22:50.517Z,98969.13
2023-04-01T10:24:39.217Z,98982.72
2023-04-01T10:26:36.217Z,98980.75
2023-04-01T10:28:11.050Z,98981.56
2023-04-01T10:30:08.051Z,98982.34
2023-04-01T10:32:20.843Z,98976.44
2023-04-01T10:33:48.131Z,98977.81
2023-04-01T10:35:11.352Z,98986.13
2023-04-01T10:36:18.546Z,98977.84
2023-04-01T10:37:49.621Z,98977.25
2023-04-01T10:39:31.712Z,98981.00
2023-04-01T10:41:23.592Z,98976.56
2023-04-01T10:43:22.216Z,98984.88
2023-04-01T10:45:14.321Z,98993.47
2023-04-01T10:46:57.502Z,98992.78
2023-04-01T10:48:21.477Z,98995.16
2023-04-01T10:50:03.288Z,98974.47
2023-04-01T10:51:28.340Z,98986.78
2023-04-01T10:52:47.767Z,98979.25
2023-04-01T10:54:17.108Z,98994.09
2023-04-01T10:56:35.056Z,98982.22
2023-04-01T10:58:38.067Z,98989.72
2023-04-01T11:00:29.595Z,98988.56
2023-04-01T11:02:21.851Z,98993.28
2023-04-01T11:04:29.169Z,98996.44
2023-04-01T11:06:17.070Z,98997.66
2023-04-01T11:08:05.283Z,98986.97
2023-04-01T11:09:26.633Z,98995.56
2023-04-01T11:11:20.071Z,98990.09
2023-04-01T11:12:48.064Z,98994.44
2023-04-01T11:14:19.168Z,98990.88
2023-04-01T11:16:00.559Z,98989.31
2023-04-01T11:17:38.674Z,98996.88
2023-04-01T11:19:12.111Z,98990.88
2023-04-01T11:20:54.576Z,98991.28
2023-04-01T11:22:11.737Z,98985.31
2023-04-01T11:23:28.670Z,98986.75
2023-04-01T11:24:54.489Z,98990.78
2023-04-01T11:26:54.521Z,98980.84
2023-04-01T11:28:10.177Z,98989.44
2023-04-01T11:29:49.770Z,98985.94
2023-04-01T11:31:27.752Z,98992.75
2023-04-01T11:32:51.647Z,98992.75
2023-04-01T11:34:18.555Z,98997.94
2023-04-01T11:35:26.509Z,98995.53
2023-04-01T11:36:55.833Z,98994.78
2023-04-01T11:38:24.195Z,99000.81
2023-04-01T11:40:10.263Z,98991.59
2023-04-01T11:42:10.334Z,98987.75
2023-04-01T11:44:00.771Z,98995.56
2023-04-01T11:45:29.245Z,98999.94
2023-04-01T11:46:57.227Z,98996.72
2023-04-01T11:48:26.685Z,98999.88
2023-04-01T11:50:13.764Z,98989.28
2023-04-01T11:51:38.843Z,98996.03
2023-04-01T11:53:00.188Z,98993.88
2023-04-01T11:54:18.502Z,98991.50
2023-04-01T11:55:27.674Z,98990.94
2023-04-01T11:56:52.568Z,98984.53
2023-04-01T11:58:00.946Z,98995.94
2023-04-01T11:59:07.557Z,98994.00
2023-04-01T12:00:34.761Z,98993.47
2023-04-01T12:02:11.173Z,99006.69
2023-04-01T12:03:49.871Z,99015.38
2023-04-01T12:05:01.879Z,99008.13
2023-04-01T12:06:27.242Z,99009.94
2023-04-01T12:08:00.289Z,99002.03
2023-04-01T12:09:19.914Z,99005.44
2023-04-01T12:10:35.435Z,99003.75
2023-04-01T12:11:51.208Z,99010.41
2023-04-01T12:13:08.241Z,99013.69
2023-04-01T12:14:27.512Z,99018.09
2023-04-01T12:15:51.179Z,99013.88
2023-04-01T12:17:20.684Z,99014.06
2023-04-01T12:18:33.720Z,99009.56
2023-04-01T12:19:51.079Z,99008.59
2023-04-01T12:21:30.081Z,99009.66
2023-04-01T12:22:53.855Z,99014.34
2023-04-01T12:24:33.920Z,99014.09
2023-04-01T12:25:36.861Z,99013.47
2023-04-01T12:27:01.613Z,99003.75
2023-04-01T12:28:20.759Z,99008.38
2023-04-01T12:29:38.474Z,99014.50
2023-04-01T12:30:50.187Z,99009.38
2023-04-01T12:32:30.797Z,99011.59
2023-04-01T12:33:40.000Z,99006.84
2023-04-01T12:34:44.972Z,99013.97
2023-04-01T12:36:05.729Z,99009.78
2023-04-01T12:37:20.410Z,99012.84
2023-04-01T12:38:36.460Z,99017.06
2023-04-01T12:40:11.085Z,99015.72
2023-04-01T12:41:28.889Z,99015.03
2023-04-01T12:42:35.016Z,99015.34
2023-04-01T12:44:30.608Z,99017.25
2023-04-01T12:45:49.465Z,99013.38
2023-04-01T12:50:03.426Z,99024.16
2023-04-01T12:56:30.062Z,99032.94
2023-04-01T12:57:34.184Z,99032.53
2023-04-01T12:59:23.000Z,99032.44
2023-04-01T13:00:48.458Z,99042.56
2023-04-01T13:02:33.094Z,99041.47
2023-04-01T13:04:20.768Z,99037.78
2023-04-01T13:05:51.176Z,99039.53
2023-04-01T13:07:03.641Z,99039.53
2023-04-01T13:08:32.056Z,99042.16
2023-04-01T13:10:05.134Z,99043.84
2023-04-01T13:11:21.961Z,99048.22
2023-04-01T13:12:55.751Z,99037.53
2023-04-01T13:14:31.351Z,99036.59
2023-04-01T13:15:54.755Z,99036.66
2023-04-01T13:17:15.386Z,99045.75
2023-04-01T13:18:27.129Z,99045.72
2023-04-01T13:20:06.411Z,99046.50
2023-04-01T13:21:47.829Z,99052.03
2023-04-01T13:23:25.942Z,99055.25
2023-04-01T13:24:42.006Z,99050.59
2023-04-01T13:26:15.132Z,99056.88
2023-04-01T13:27:33.534Z,99065.16
2023-04-01T13:28:46.848Z,99065.16
2023-04-01T13:30:10.824Z,99064.03
2023-04-01T13:31:55.165Z,99060.84
2023-04-01T13:33:14.825Z,99062.91
2023-04-01T13:34:38.832Z,99067.59
2023-04-01T13:36:17.689Z,99067.28
2023-04-01T13:37:36.080Z,99078.38
2023-04-01T13:39:09.328Z,99068.28
2023-04-01T13:40:30.226Z,99076.53
2023-04-01T13:41:57.186Z,99070.59
2023-04-01T13:43:15.218Z,99072.59
2023-04-01T13:44:33.388Z,99077.34
2023-04-01T13:46:03.475Z,99065.81
2023-04-01T13:47:43.133Z,99072.97
2023-04-01T13:49:26.042Z,99073.03
2023-04-01T13:51:08.778Z,99076.16
2023-04-01T13:52:32.973Z,99077.00
2023-04-01T13:53:57.424Z,99073.47
2023-04-01T13:55:25.735Z,99072.69
2023-04-01T13:56:47.953Z,99073.06
2023-04-01T13:58:28.351Z,99075.09
2023-04-01T13:59:53.834Z,99085.72
2023-04-01T17:02:33.932Z,99262.19
2023-04-01T17:09:58.295Z,99262.94
2023-04-01T17:11:40.358Z,99270.81
2023-04-01T17:18:45.737Z,99274.75
2023-04-01T20:38:30.963Z,99409.09
2023-04-01T20:39:53.764Z,99403.06
2023-04-01T20:41:28.999Z,99404.69
2023-04-01T20:42:48.602Z,99402.34
2023-04-01T20:44:12.865Z,99401.16
2023-04-01T20:45:44.140Z,99401.09
2023-04-01T20:47:14.584Z,99401.94
2023-04-01T20:48:59.497Z,99409.00
2023-04-01T20:50:35.248Z,99404.94
2023-04-01T20:51:52.550Z,99405.78
2023-04-01T20:53:09.244Z,99403.13
2023-04-01T20:54:46.409Z,99396.81
2023-04-01T20:56:12.397Z,99397.59
2023-04-01T20:57:33.602Z,99400.72
2023-04-01T20:58:44.065Z,99399.50
2023-04-01T21:00:53.044Z,99395.94
2023-04-01T21:02:21.542Z,99399.59
2023-04-01T21:03:56.606Z,99405.41
2023-04-01T21:05:46.957Z,99407.38
